Time;durP1;ratioP1;P1;durP2;ratioP2;P2;SDS_P1;SDS_P2;PMS_P1;PMS_P2;Temp;Humidity;BMP_temperature;BMP_pressure;BME280_temperature;BME280_humidity;BME280_pressure;Samples;Min_cycle;Max_cycle;Signal;HPM_P1;HPM_P2
2021/07/23 00:02:22;;;;;;;;;22.75;20.75;;;;;26.57;35.69;101305.03;5102742;27;45276;-60
2021/07/23 00:04:47;;;;;;;;;21.25;19.00;;;;;26.53;36.38;101301.69;5084355;27;45382;-60
2021/07/23 00:07:13;;;;;;;;;21.25;19.25;;;;;26.52;36.08;101301.81;5102450;27;45600;-60
2021/07/23 00:09:38;;;;;;;;;17.00;15.75;;;;;26.50;36.34;101298.38;5102358;27;45254;-60
2021/07/23 00:12:04;;;;;;;;;19.00;18.75;;;;;26.46;35.92;101291.50;5102431;27;45322;-60
2021/07/23 00:14:29;;;;;;;;;20.00;18.50;;;;;26.44;36.52;101288.91;5102649;27;45309;-60
2021/07/23 00:16:54;;;;;;;;;18.25;17.50;;;;;26.40;36.47;101287.41;5102569;27;45252;-60
2021/07/23 00:19:19;;;;;;;;;15.75;15.00;;;;;26.36;36.57;101280.53;5102154;27;45526;-60
2021/07/23 00:21:45;;;;;;;;;18.50;18.00;;;;;26.34;36.45;101279.75;5080711;28;45450;-60
2021/07/23 00:24:10;;;;;;;;;20.50;20.50;;;;;26.30;36.53;101281.81;5098580;27;45277;-60
2021/07/23 00:26:35;;;;;;;;;20.75;16.50;;;;;26.25;36.84;101282.16;5102476;27;45421;-60
2021/07/23 00:29:01;;;;;;;;;15.50;15.00;;;;;26.23;36.47;101280.56;5102064;27;47012;-60
2021/07/23 00:31:26;;;;;;;;;21.75;19.75;;;;;26.16;37.00;101272.03;5102299;27;45177;-60
2021/07/23 00:33:51;;;;;;;;;18.00;17.25;;;;;26.16;36.46;101279.28;5102460;27;45504;-60
2021/07/23 00:36:17;;;;;;;;;24.50;20.25;;;;;26.11;36.83;101282.28;5102205;27;45340;-60
2021/07/23 00:38:43;;;;;;;;;23.50;17.75;;;;;26.08;36.61;101267.22;5101850;27;45169;-60
2021/07/23 00:41:08;;;;;;;;;20.00;17.50;;;;;26.03;37.21;101269.34;5101975;27;45246;-60
2021/07/23 00:43:34;;;;;;;;;17.25;16.25;;;;;25.99;36.69;101266.97;5083575;27;45169;-60
2021/07/23 00:45:59;;;;;;;;;17.00;15.00;;;;;25.91;36.85;101260.31;5101754;27;45383;-60
2021/07/23 00:48:25;;;;;;;;;18.50;16.75;;;;;25.90;37.20;101266.66;5100973;27;46111;-60
2021/07/23 00:50:51;;;;;;;;;15.25;14.25;;;;;25.86;37.27;101266.97;5101879;27;45419;-59
2021/07/23 00:53:17;;;;;;;;;21.00;16.25;;;;;25.80;37.49;101260.22;5101846;27;45650;-60
2021/07/23 00:55:45;;;;;;;;;19.25;16.00;;;;;25.80;37.64;101261.06;5101913;27;45307;-60
2021/07/23 00:58:11;;;;;;;;;20.25;16.75;;;;;25.75;37.30;101263.22;5083401;27;48278;-60
2021/07/23 01:00:39;;;;;;;;;20.50;18.00;;;;;25.73;37.78;101257.06;5101869;27;45239;-60
2021/07/23 01:03:05;;;;;;;;;21.00;16.25;;;;;25.69;37.34;101252.88;5101801;27;45268;-60
2021/07/23 01:05:31;;;;;;;;;19.25;18.25;;;;;25.66;37.87;101246.84;5101772;27;45339;-60
2021/07/23 01:07:57;;;;;;;;;18.50;15.75;;;;;25.63;37.77;101242.56;5095725;27;46741;-60
2021/07/23 01:10:22;;;;;;;;;16.25;16.25;;;;;25.59;37.46;101249.13;5101547;27;45272;-60
2021/07/23 01:12:48;;;;;;;;;17.50;15.25;;;;;25.52;37.54;101237.94;5101586;27;45298;-60
2021/07/23 01:15:13;;;;;;;;;19.00;17.75;;;;;25.49;38.02;101238.13;5101438;27;52397;-61
2021/07/23 01:17:40;;;;;;;;;17.00;16.75;;;;;25.44;38.09;101237.59;5099927;27;47508;-60
2021/07/23 01:20:24;;;;;;;;;16.75;14.75;;;;;25.42;37.88;101243.09;5082905;27;45181;-60
2021/07/23 01:22:50;;;;;;;;;19.50;17.25;;;;;25.39;37.96;101245.13;5101089;27;45378;-60
2021/07/23 01:25:15;;;;;;;;;16.75;15.50;;;;;25.34;37.75;101229.28;5101469;27;45566;-60
2021/07/23 01:27:50;;;;;;;;;15.00;14.25;;;;;25.33;38.31;101237.44;5101182;27;45220;-60
2021/07/23 01:30:16;;;;;;;;;17.00;14.75;;;;;25.26;37.98;101227.13;5101367;27;45262;-60
2021/07/23 01:32:41;;;;;;;;;17.50;15.75;;;;;25.26;37.95;101234.34;5101232;27;45243;-61
2021/07/23 01:35:07;;;;;;;;;16.75;14.75;;;;;25.24;38.22;101239.78;5079618;28;45843;-60
2021/07/23 01:37:33;;;;;;;;;15.75;15.25;;;;;25.21;38.36;101231.94;5100037;27;45355;-60
2021/07/23 01:39:59;;;;;;;;;18.75;17.75;;;;;25.19;38.14;101230.34;5065939;27;45308;-60
2021/07/23 01:42:29;;;;;;;;;21.25;15.50;;;;;25.15;38.45;101230.53;5065703;27;45410;-60
2021/07/23 01:44:55;;;;;;;;;17.25;16.75;;;;;25.13;38.38;101226.22;5079333;28;45505;-60
2021/07/23 01:47:20;;;;;;;;;19.50;18.00;;;;;25.09;38.47;101224.72;5100440;27;46047;-60
2021/07/23 01:49:46;;;;;;;;;19.25;16.50;;;;;25.06;38.81;101227.63;5101059;27;45232;-60
2021/07/23 01:52:11;;;;;;;;;19.00;17.25;;;;;25.02;38.80;101218.03;5100845;27;45307;-60
2021/07/23 01:54:36;;;;;;;;;18.00;16.00;;;;;24.98;38.78;101215.56;5101060;27;45273;-60
2021/07/23 01:57:05;;;;;;;;;13.00;12.50;;;;;24.94;38.80;101219.44;5078886;28;47042;-60
2021/07/23 01:59:32;;;;;;;;;18.50;17.75;;;;;24.87;39.11;101218.09;5093510;27;45358;-60
2021/07/23 02:01:57;;;;;;;;;15.75;13.50;;;;;24.87;39.54;101223.47;5100880;27;45347;-60
2021/07/23 02:04:23;;;;;;;;;18.00;18.00;;;;;24.85;39.20;101217.34;5100716;27;45384;-60
2021/07/23 02:06:49;;;;;;;;;16.25;14.75;;;;;24.83;39.00;101221.97;5100590;27;45317;-60
2021/07/23 02:09:15;;;;;;;;;18.50;17.50;;;;;24.76;39.12;101213.44;5100696;27;45362;-60
2021/07/23 02:11:40;;;;;;;;;17.00;17.00;;;;;24.75;38.96;101218.94;5100858;27;45211;-60
2021/07/23 02:14:09;;;;;;;;;14.75;14.25;;;;;24.75;39.13;101218.94;5100735;27;45485;-60
2021/07/23 02:16:37;;;;;;;;;14.50;13.50;;;;;24.73;39.36;101223.53;5100772;27;45380;-60
2021/07/23 02:19:03;;;;;;;;;17.75;15.00;;;;;24.71;39.33;101220.09;5100448;27;45360;-60
2021/07/23 02:21:29;;;;;;;;;17.00;15.00;;;;;24.67;39.41;101217.59;5100304;27;45572;-60
2021/07/23 02:23:56;;;;;;;;;15.50;14.25;;;;;24.65;39.10;101218.66;5100213;27;45441;-60
2021/07/23 02:26:22;;;;;;;;;19.00;18.50;;;;;24.62;39.25;101213.47;5100546;27;46026;-60
2021/07/23 02:28:49;;;;;;;;;16.25;15.75;;;;;24.59;39.27;101211.88;5100310;27;45336;-60
2021/07/23 02:31:18;;;;;;;;;21.00;18.75;;;;;24.58;39.40;101214.63;5100666;27;45250;-60
2021/07/23 02:33:44;;;;;;;;;17.25;15.50;;;;;24.56;39.80;101213.88;5100338;27;45410;-60
2021/07/23 02:36:10;;;;;;;;;16.50;15.00;;;;;24.53;39.55;101217.63;5078818;28;46343;-60
2021/07/23 02:38:36;;;;;;;;;15.25;13.75;;;;;24.51;39.51;101216.88;5074377;27;45914;-60
2021/07/23 02:41:01;;;;;;;;;15.50;14.50;;;;;24.50;39.42;101204.38;5100504;27;45231;-60
2021/07/23 02:43:27;;;;;;;;;19.25;16.50;;;;;24.47;39.66;101208.13;5100178;27;45441;-60
2021/07/23 02:45:53;;;;;;;;;15.00;12.75;;;;;24.47;39.74;101210.81;5100280;27;47096;-60
2021/07/23 02:48:18;;;;;;;;;18.00;18.00;;;;;24.46;39.71;101213.63;5079546;27;45319;-60
2021/07/23 02:50:44;;;;;;;;;19.75;14.75;;;;;24.44;39.58;101211.03;5100533;27;45221;-60
2021/07/23 02:53:09;;;;;;;;;20.75;19.00;;;;;24.44;39.80;101210.16;5100148;27;45371;-60
2021/07/23 02:55:34;;;;;;;;;18.25;15.50;;;;;24.41;39.64;101203.16;5100188;27;46261;-60
2021/07/23 02:58:00;;;;;;;;;20.25;15.50;;;;;24.41;39.66;101196.94;5100118;27;45240;-60
2021/07/23 03:00:26;;;;;;;;;16.25;15.75;;;;;24.38;39.90;101181.03;5100361;27;45169;-61
2021/07/23 03:02:51;;;;;;;;;17.00;15.75;;;;;24.37;39.90;101187.38;5100050;27;45296;-60
2021/07/23 03:05:17;;;;;;;;;21.00;18.00;;;;;24.36;39.99;101186.50;5100114;27;46251;-60
2021/07/23 03:07:42;;;;;;;;;15.50;15.50;;;;;24.34;39.76;101186.59;5099800;27;45261;-60
2021/07/23 03:10:08;;;;;;;;;19.25;17.50;;;;;24.30;40.06;101189.59;5078980;28;45351;-60
2021/07/23 03:12:34;;;;;;;;;17.25;15.75;;;;;24.31;40.06;101189.50;5097541;27;45569;-60
2021/07/23 03:15:00;;;;;;;;;17.00;16.25;;;;;24.29;40.09;101187.88;5103604;27;45338;-60
2021/07/23 03:17:25;;;;;;;;;17.50;16.00;;;;;24.26;40.17;101180.88;5103385;27;45359;-60
2021/07/23 03:19:51;;;;;;;;;15.50;14.25;;;;;24.25;40.25;101186.34;5084828;27;45258;-60
2021/07/23 03:22:17;;;;;;;;;16.25;15.75;;;;;24.23;40.39;101183.75;5103111;27;45253;-60
2021/07/23 03:24:42;;;;;;;;;18.50;15.75;;;;;24.21;40.18;101185.66;5081573;28;47239;-60
2021/07/23 03:27:07;;;;;;;;;16.00;16.00;;;;;24.18;40.24;101183.19;5096411;27;45330;-60
2021/07/23 03:29:33;;;;;;;;;16.50;15.25;;;;;24.14;40.37;101182.53;5103579;27;45162;-60
2021/07/23 03:31:59;;;;;;;;;19.25;17.00;;;;;24.15;40.38;101178.91;5103176;27;45209;-60
2021/07/23 03:34:24;;;;;;;;;18.00;16.00;;;;;24.13;40.33;101177.28;5081355;28;45884;-60
2021/07/23 03:36:49;;;;;;;;;19.75;18.50;;;;;24.11;40.40;101184.56;5096006;27;45224;-60
2021/07/23 03:39:15;;;;;;;;;15.25;15.25;;;;;24.10;40.32;101182.81;5081579;28;45240;-60
2021/07/23 03:41:42;;;;;;;;;19.75;18.75;;;;;24.06;40.43;101182.16;5096077;27;45312;-60
2021/07/23 03:44:07;;;;;;;;;17.00;17.00;;;;;24.06;40.37;101182.16;5081336;28;46250;-59
2021/07/23 03:46:33;;;;;;;;;16.75;15.50;;;;;24.04;40.54;101177.84;5096051;27;45337;-60
2021/07/23 03:48:58;;;;;;;;;18.75;17.50;;;;;24.00;40.52;101169.16;5103018;27;45286;-60
2021/07/23 03:51:23;;;;;;;;;17.00;16.50;;;;;23.96;40.79;101157.75;5102850;27;45335;-60
2021/07/23 03:53:48;;;;;;;;;19.75;13.25;;;;;23.97;40.63;101161.28;5102557;27;51130;-60
2021/07/23 03:56:14;;;;;;;;;18.25;17.00;;;;;23.91;40.77;101145.53;5102749;27;52123;-60
2021/07/23 03:58:39;;;;;;;;;18.50;15.75;;;;;23.92;40.78;101142.78;5102795;27;45315;-60
2021/07/23 04:01:06;;;;;;;;;15.75;15.00;;;;;23.90;41.17;101133.97;5102777;27;45351;-60
2021/07/23 04:03:34;;;;;;;;;19.75;19.25;;;;;23.89;40.93;101121.50;5080944;28;48285;-60
2021/07/23 04:06:00;;;;;;;;;20.25;17.25;;;;;23.88;40.98;101130.50;5096194;27;45489;-60
2021/07/23 04:08:27;;;;;;;;;15.75;14.00;;;;;23.86;40.94;101122.56;5102513;27;45492;-60
2021/07/23 04:10:53;;;;;;;;;16.25;14.50;;;;;23.83;40.99;101120.06;5102493;27;45351;-60
2021/07/23 04:13:18;;;;;;;;;16.75;15.00;;;;;23.82;41.02;101114.78;5102365;27;46035;-60
2021/07/23 04:15:44;;;;;;;;;17.50;14.75;;;;;23.82;40.90;101122.84;5102515;27;45386;-60
2021/07/23 04:18:09;;;;;;;;;22.00;17.75;;;;;23.79;41.23;101112.31;5084426;27;45320;-60
2021/07/23 04:20:35;;;;;;;;;16.25;15.00;;;;;23.78;41.21;101121.31;5102064;27;45433;-60
2021/07/23 04:23:00;;;;;;;;;20.50;17.75;;;;;23.75;41.26;101129.56;5102205;27;46255;-60
2021/07/23 04:25:25;;;;;;;;;16.75;15.00;;;;;23.73;41.30;101126.97;5102398;27;45360;-60
2021/07/23 04:27:51;;;;;;;;;27.25;25.25;;;;;23.70;41.52;101119.97;5084157;27;45358;-60
2021/07/23 04:30:17;;;;;;;;;17.50;16.00;;;;;23.70;41.25;101114.63;5102412;27;45600;-61
2021/07/23 04:32:43;;;;;;;;;20.50;20.25;;;;;23.67;41.31;101117.50;5102186;27;46275;-60
2021/07/23 04:35:09;;;;;;;;;19.50;17.00;;;;;23.65;41.36;101114.06;5102303;27;45247;-60
2021/07/23 04:37:35;;;;;;;;;18.00;15.50;;;;;23.65;41.22;101113.22;5101995;27;45322;-60
2021/07/23 04:40:01;;;;;;;;;17.25;16.25;;;;;23.60;41.58;101108.13;5102064;27;45551;-60
2021/07/23 04:42:26;;;;;;;;;18.25;16.00;;;;;23.60;41.60;101109.97;5088370;27;46214;-60
2021/07/23 04:44:52;;;;;;;;;15.00;13.75;;;;;23.58;41.42;101118.06;5083563;27;45313;-60
2021/07/23 04:47:17;;;;;;;;;20.75;19.25;;;;;23.57;41.83;101115.50;5102024;27;45621;-60
2021/07/23 04:49:43;;;;;;;;;22.50;18.25;;;;;23.54;41.39;101112.03;5101968;27;45613;-60
2021/07/23 04:52:08;;;;;;;;;18.25;15.00;;;;;23.53;41.54;101107.66;5079821;28;46094;-60
2021/07/23 04:54:33;;;;;;;;;19.50;19.50;;;;;23.52;41.76;101123.81;5073112;28;45299;-60
2021/07/23 04:56:58;;;;;;;;;20.75;17.25;;;;;23.49;41.71;101122.19;5101593;27;45284;-60
2021/07/23 04:59:24;;;;;;;;;21.00;17.25;;;;;23.48;41.98;101122.31;5101919;27;45439;-60
2021/07/23 05:01:49;;;;;;;;;18.25;18.00;;;;;23.46;41.88;101114.34;5101901;27;45286;-59
2021/07/23 05:04:15;;;;;;;;;23.50;18.25;;;;;23.44;41.64;101120.78;5101900;27;45283;-60
2021/07/23 05:06:41;;;;;;;;;22.25;20.00;;;;;23.43;41.64;101129.78;5101733;27;45263;-60
2021/07/23 05:09:07;;;;;;;;;16.50;16.00;;;;;23.39;41.79;101130.94;5101585;27;45425;-60
2021/07/23 05:11:33;;;;;;;;;18.75;18.75;;;;;23.37;42.15;101131.88;5101413;27;45343;-60
2021/07/23 05:14:05;;;;;;;;;25.00;19.25;;;;;23.35;42.33;101125.75;5101505;27;45241;-60
2021/07/23 05:16:30;;;;;;;;;19.00;17.75;;;;;23.33;41.76;101121.44;5101676;27;45331;-59
2021/07/23 05:18:57;;;;;;;;;18.75;17.00;;;;;23.31;42.22;101110.81;5101476;27;45456;-59
2021/07/23 05:21:22;;;;;;;;;20.75;17.50;;;;;23.31;41.88;101120.69;5082806;27;47120;-59
2021/07/23 05:23:48;;;;;;;;;22.50;17.75;;;;;23.29;42.35;101112.72;5101127;27;45254;-60
2021/07/23 05:26:14;;;;;;;;;16.00;15.00;;;;;23.27;42.34;101111.97;5101459;27;45262;-59
2021/07/23 05:28:39;;;;;;;;;33.00;30.25;;;;;23.27;42.46;101114.66;5101274;27;45469;-60
2021/07/23 05:31:05;;;;;;;;;29.00;28.00;;;;;23.26;42.49;101107.56;5101212;27;45225;-60
2021/07/23 05:33:31;;;;;;;;;27.50;25.75;;;;;23.26;42.34;101104.88;5100609;27;45402;-60
2021/07/23 05:35:56;;;;;;;;;24.25;19.25;;;;;23.25;42.23;101110.34;5101222;27;45347;-60
2021/07/23 05:38:21;;;;;;;;;23.00;22.50;;;;;23.23;42.28;101101.53;5101020;27;45485;-60
2021/07/23 05:40:47;;;;;;;;;23.25;20.25;;;;;23.23;42.38;101110.41;5101149;27;46247;-60
2021/07/23 05:43:13;;;;;;;;;22.00;21.00;;;;;23.23;42.63;101114.94;5101105;27;45345;-60
2021/07/23 05:45:40;;;;;;;;;20.50;18.00;;;;;23.20;42.28;101108.78;5101291;27;45327;-60
2021/07/23 05:48:06;;;;;;;;;24.25;22.00;;;;;23.24;42.39;101113.97;5079420;27;45322;-60
2021/07/23 05:50:31;;;;;;;;;23.50;19.75;;;;;23.25;42.27;101110.34;5100868;27;46164;-60
2021/07/23 05:52:56;;;;;;;;;22.75;19.75;;;;;23.24;42.62;101101.41;5100668;27;45219;-60
2021/07/23 05:55:22;;;;;;;;;25.75;22.00;;;;;23.24;42.94;101105.94;5101256;27;45187;-60
2021/07/23 05:57:48;;;;;;;;;18.00;17.75;;;;;23.23;42.54;101098.84;5100879;27;45231;-60
2021/07/23 06:00:14;;;;;;;;;21.25;21.25;;;;;23.24;42.69;101101.41;5100890;27;45214;-60
2021/07/23 06:02:39;;;;;;;;;22.25;19.00;;;;;23.24;42.79;101100.56;5100923;27;45251;-60
2021/07/23 06:05:05;;;;;;;;;18.25;17.50;;;;;23.24;42.62;101090.69;5101110;27;45235;-60
2021/07/23 06:07:30;;;;;;;;;23.75;21.25;;;;;23.25;42.71;101089.75;5100564;27;45224;-60
2021/07/23 06:09:55;;;;;;;;;19.25;17.75;;;;;23.24;42.60;101085.34;5100264;27;45249;-60
2021/07/23 06:12:21;;;;;;;;;27.50;21.50;;;;;23.27;43.19;101070.88;5100851;27;45311;-60
2021/07/23 06:14:46;;;;;;;;;24.50;19.75;;;;;23.27;43.05;101063.72;5078935;28;45462;-60
2021/07/23 06:17:11;;;;;;;;;22.25;20.75;;;;;23.29;42.83;101064.47;5093058;27;45273;-59
2021/07/23 06:19:38;;;;;;;;;26.25;23.50;;;;;23.30;42.80;101060.81;5100091;27;46484;-60
2021/07/23 06:22:04;;;;;;;;;19.75;19.75;;;;;23.32;43.00;101058.91;5100393;27;45299;-60
2021/07/23 06:24:30;;;;;;;;;25.25;20.00;;;;;23.34;43.06;101057.00;5100523;27;45245;-60
2021/07/23 06:26:55;;;;;;;;;20.25;20.25;;;;;23.36;43.06;101064.97;5100470;27;45295;-60
2021/07/23 06:29:20;;;;;;;;;20.25;20.25;;;;;23.37;43.13;101062.16;5100402;27;46073;-59
2021/07/23 06:31:45;;;;;;;;;24.50;20.75;;;;;23.41;43.37;101064.66;5100507;27;45291;-60
2021/07/23 06:34:11;;;;;;;;;20.75;20.25;;;;;23.42;43.18;101063.69;5100512;27;45373;-60
2021/07/23 06:36:36;;;;;;;;;24.50;21.75;;;;;23.41;43.25;101057.47;5100248;27;45443;-60
2021/07/23 06:39:02;;;;;;;;;20.50;20.50;;;;;23.43;42.96;101050.19;5100185;27;47388;-60
2021/07/23 06:41:27;;;;;;;;;23.75;21.25;;;;;23.50;43.04;101056.03;5100401;27;45158;-60
2021/07/23 06:43:53;;;;;;;;;20.25;18.50;;;;;23.50;43.17;101051.53;5100123;27;45264;-60
2021/07/23 06:46:18;;;;;;;;;25.50;20.25;;;;;23.54;43.17;101049.50;5103039;27;45428;-60
2021/07/23 06:48:43;;;;;;;;;20.75;17.50;;;;;23.56;43.31;101052.09;5103563;27;46081;-60
2021/07/23 06:51:09;;;;;;;;;22.50;21.25;;;;;23.59;43.14;101052.75;5103769;27;45241;-60
2021/07/23 06:53:34;;;;;;;;;25.00;22.50;;;;;23.63;42.81;101056.09;5081826;28;45292;-60
2021/07/23 06:56:02;;;;;;;;;16.25;16.00;;;;;23.65;43.11;101055.03;5095128;27;45359;-60
2021/07/23 06:58:27;;;;;;;;;22.25;21.00;;;;;23.66;43.33;101046.03;5103445;27;46338;-59
2021/07/23 07:00:52;;;;;;;;;23.25;23.25;;;;;23.73;43.24;101048.31;5103674;27;45257;-61
2021/07/23 07:03:18;;;;;;;;;20.75;20.75;;;;;23.73;43.32;101051.84;5103850;27;45230;-61
2021/07/23 07:05:43;;;;;;;;;23.25;21.00;;;;;23.80;43.24;101055.03;5103755;27;45433;-61
2021/07/23 07:08:08;;;;;;;;;20.75;17.75;;;;;23.83;43.35;101044.94;5102973;27;47191;-61
2021/07/23 07:10:34;;;;;;;;;21.00;18.25;;;;;23.86;43.35;101041.19;5103569;27;45368;-60
2021/07/23 07:13:00;;;;;;;;;21.50;19.25;;;;;23.91;43.47;101044.47;5085506;27;45410;-63
2021/07/23 07:15:26;;;;;;;;;21.75;19.00;;;;;23.94;43.09;101036.22;5073879;27;45425;-62
2021/07/23 07:17:59;;;;;;;;;22.50;22.25;;;;;23.99;43.22;101033.25;5088565;27;46057;-62
2021/07/23 07:20:24;;;;;;;;;21.75;19.75;;;;;24.02;43.33;101031.22;5089377;27;45612;-62
2021/07/23 07:22:51;;;;;;;;;20.75;19.75;;;;;24.06;43.26;101029.16;5089071;27;45343;-62
2021/07/23 07:25:17;;;;;;;;;24.75;21.75;;;;;24.09;43.35;101020.06;5096627;27;45405;-63
2021/07/23 07:27:42;;;;;;;;;19.50;19.00;;;;;24.04;43.09;101006.94;5090734;27;45252;-63
2021/07/23 07:30:08;;;;;;;;;22.00;18.25;;;;;24.17;43.16;101028.44;5091687;27;45203;-63
2021/07/23 07:32:33;;;;;;;;;21.25;20.75;;;;;24.21;43.06;101029.97;5082745;27;45329;-63
2021/07/23 07:34:58;;;;;;;;;24.75;20.75;;;;;24.23;43.11;101022.66;5096013;27;45359;-62
2021/07/23 07:37:24;;;;;;;;;17.00;17.00;;;;;24.31;43.22;101039.13;5096066;27;45279;-62
2021/07/23 07:39:49;;;;;;;;;23.50;22.50;;;;;24.36;43.32;101030.75;5089082;27;45183;-62
2021/07/23 07:42:16;;;;;;;;;22.00;19.25;;;;;24.37;43.55;101029.78;5089194;27;45319;-62
2021/07/23 07:44:42;;;;;;;;;25.00;19.75;;;;;24.44;43.15;101036.47;5089522;27;45589;-62
2021/07/23 07:47:07;;;;;;;;;22.75;22.00;;;;;24.50;43.34;101041.44;5082658;27;45322;-62
2021/07/23 07:49:32;;;;;;;;;20.75;19.00;;;;;24.55;43.13;101035.72;5096015;27;45267;-62
2021/07/23 07:51:57;;;;;;;;;22.75;21.75;;;;;24.60;43.04;101036.28;5095754;27;45391;-62
2021/07/23 07:54:23;;;;;;;;;21.75;19.75;;;;;24.66;43.09;101030.50;5070998;27;45339;-62
2021/07/23 07:56:51;;;;;;;;;20.75;20.00;;;;;24.72;43.15;101033.75;5094599;27;46091;-62
2021/07/23 07:59:16;;;;;;;;;18.00;18.00;;;;;24.75;42.97;101034.38;5088813;27;45387;-62
2021/07/23 08:01:41;;;;;;;;;19.25;18.25;;;;;24.81;43.30;101033.09;5083554;27;45453;-62
2021/07/23 08:04:07;;;;;;;;;23.00;21.75;;;;;24.87;43.03;101039.84;5070462;27;48177;-61
2021/07/23 08:06:35;;;;;;;;;23.75;21.00;;;;;24.90;43.21;101039.66;5093895;27;45399;-62
2021/07/23 08:09:11;;;;;;;;;23.50;22.75;;;;;24.95;43.09;101035.66;5102443;27;45274;-62
2021/07/23 08:11:38;;;;;;;;;26.25;23.75;;;;;24.99;42.98;101029.13;5102621;27;45393;-62
2021/07/23 08:14:03;;;;;;;;;21.00;19.00;;;;;25.05;43.30;101032.34;5093353;27;45284;-62
2021/07/23 08:16:30;;;;;;;;;23.50;21.00;;;;;25.08;43.49;101019.56;5082465;27;46139;-61
2021/07/23 08:18:56;;;;;;;;;25.75;22.50;;;;;25.11;42.89;101013.09;5102597;27;45313;-62
2021/07/23 08:21:21;;;;;;;;;21.50;21.50;;;;;25.15;43.25;101004.69;5089456;27;45281;-62
2021/07/23 08:23:46;;;;;;;;;26.00;22.50;;;;;25.23;42.66;101000.59;5091355;27;45521;-62
2021/07/23 08:26:12;;;;;;;;;23.75;21.75;;;;;25.27;43.43;101008.31;5102135;27;46167;-62
2021/07/23 08:28:37;;;;;;;;;22.50;20.50;;;;;25.34;43.36;101006.03;5102169;27;45253;-62
2021/07/23 08:31:03;;;;;;;;;22.25;19.75;;;;;25.40;43.32;101007.47;5083991;27;45248;-62
2021/07/23 08:33:28;;;;;;;;;19.25;18.00;;;;;25.45;43.32;101008.84;5102298;27;45233;-62
2021/07/23 08:35:54;;;;;;;;;21.75;21.00;;;;;25.50;42.89;101013.91;5102110;27;45328;-63
2021/07/23 08:38:19;;;;;;;;;19.75;19.75;;;;;25.56;43.11;101013.44;5083660;27;45293;-63
2021/07/23 08:40:44;;;;;;;;;25.25;23.50;;;;;25.58;43.47;101008.78;5102236;27;45243;-62
2021/07/23 08:43:10;;;;;;;;;25.50;23.25;;;;;25.68;42.78;101000.06;5102157;27;45239;-62
2021/07/23 08:45:37;;;;;;;;;24.00;21.50;;;;;25.73;42.69;100993.34;5102059;27;46113;-62
2021/07/23 08:48:05;;;;;;;;;20.75;20.00;;;;;25.78;42.74;100995.72;5102028;27;45460;-64
2021/07/23 08:50:30;;;;;;;;;25.75;22.00;;;;;25.82;43.12;100993.66;5101890;27;45314;-63
2021/07/23 08:52:56;;;;;;;;;23.50;20.50;;;;;25.90;42.94;100994.78;5101668;27;45409;-62
2021/07/23 08:55:23;;;;;;;;;20.75;20.25;;;;;25.98;43.11;100990.66;5101855;27;47056;-62
2021/07/23 08:57:49;;;;;;;;;23.00;22.50;;;;;26.02;42.81;100979.53;5101884;27;45297;-62
2021/07/23 09:00:16;;;;;;;;;23.75;22.50;;;;;26.09;42.71;100980.81;5101861;27;45230;-62
2021/07/23 09:03:00;;;;;;;;;31.00;24.75;;;;;26.19;42.88;100982.81;5083509;27;45233;-62
2021/07/23 09:05:33;;;;;;;;;22.00;19.75;;;;;26.23;43.24;100979.78;5083280;27;48036;-62
2021/07/23 09:08:07;;;;;;;;;23.00;19.75;;;;;26.31;43.18;100981.88;5100180;27;45263;-62
2021/07/23 09:10:33;;;;;;;;;18.75;18.75;;;;;26.39;43.10;100973.19;5101621;27;45420;-62
2021/07/23 09:13:02;;;;;;;;;17.00;17.00;;;;;26.44;42.68;100976.41;5101436;27;45243;-62
2021/07/23 09:15:30;;;;;;;;;21.75;20.25;;;;;26.52;42.84;100973.94;5101320;27;46094;-62
2021/07/23 09:17:56;;;;;;;;;21.25;21.25;;;;;26.59;43.00;100975.19;5101338;27;45317;-62
2021/07/23 09:20:24;;;;;;;;;24.75;21.50;;;;;26.64;42.65;100958.69;5101530;27;45244;-62
2021/07/23 09:22:53;;;;;;;;;19.75;16.25;;;;;26.72;42.39;100963.47;5082632;27;45544;-62
2021/07/23 09:25:39;;;;;;;;;20.75;19.25;;;;;26.79;42.44;100953.06;5101488;27;45308;-62
2021/07/23 09:28:32;;;;;;;;;23.50;20.75;;;;;26.85;42.46;100960.66;5101086;27;45337;-62
2021/07/23 09:31:02;;;;;;;;;21.25;20.50;;;;;26.90;42.17;100958.47;5101379;27;45373;-62
2021/07/23 09:33:33;;;;;;;;;23.00;19.25;;;;;26.97;42.62;100948.91;5101480;27;45216;-62
2021/07/23 09:36:04;;;;;;;;;28.50;21.00;;;;;27.06;42.84;100950.00;5101095;27;45360;-62
2021/07/23 09:38:38;;;;;;;;;27.25;26.75;;;;;27.15;42.10;100945.69;5101186;27;45267;-61
2021/07/23 09:41:05;;;;;;;;;30.00;29.75;;;;;27.22;42.21;100944.19;5101129;27;45312;-61
2021/07/23 09:43:37;;;;;;;;;30.25;29.50;;;;;27.32;42.32;100941.59;5101193;27;45292;-61
2021/07/23 09:46:18;;;;;;;;;22.00;21.50;;;;;27.41;42.68;100949.00;5100890;27;46112;-61
2021/07/23 09:48:44;;;;;;;;;19.25;18.50;;;;;27.49;42.56;100934.88;5100885;27;45417;-62
2021/07/23 09:51:10;;;;;;;;;22.75;22.25;;;;;27.62;42.66;100923.91;5101208;27;45299;-62
2021/07/23 09:53:36;;;;;;;;;26.25;24.25;;;;;27.70;42.30;100916.88;5100572;27;45299;-61
2021/07/23 09:56:05;;;;;;;;;22.50;20.50;;;;;27.79;42.01;100909.84;5101035;27;46147;-62
2021/07/23 09:58:36;;;;;;;;;28.00;26.75;;;;;27.90;41.64;100906.25;5100605;27;45427;-62
2021/07/23 10:01:01;;;;;;;;;29.00;25.75;;;;;27.98;42.28;100892.06;5079234;28;45338;-61
2021/07/23 10:03:27;;;;;;;;;26.50;25.75;;;;;28.08;41.61;100895.72;5095113;27;45243;-61
2021/07/23 10:06:03;;;;;;;;;25.00;23.00;;;;;28.19;41.86;100892.94;5082456;27;47288;-61
2021/07/23 10:08:39;;;;;;;;;27.50;25.75;;;;;28.31;42.13;100887.47;5100325;27;45330;-62
2021/07/23 10:11:07;;;;;;;;;43.75;36.75;;;;;28.41;41.60;100882.13;5082704;27;45245;-61
2021/07/23 10:13:37;;;;;;;;;24.25;24.25;;;;;28.49;41.78;100868.78;5100524;27;45529;-62
2021/07/23 10:16:05;;;;;;;;;31.25;27.50;;;;;28.59;40.85;100864.28;5100620;27;46448;-61
2021/07/23 10:18:31;;;;;;;;;23.50;17.50;;;;;28.72;41.00;100860.50;5100535;27;45307;-62
2021/07/23 10:20:58;;;;;;;;;20.00;19.75;;;;;28.81;41.04;100863.22;5100614;27;45346;-62
2021/07/23 10:23:24;;;;;;;;;17.00;16.50;;;;;28.90;40.85;100853.44;5100089;27;45307;-62
2021/07/23 10:25:52;;;;;;;;;18.75;17.50;;;;;29.00;40.57;100856.16;5100468;27;46912;-62
2021/07/23 10:28:40;;;;;;;;;18.75;15.75;;;;;29.10;40.32;100854.31;5100266;27;45441;-62
2021/07/23 10:31:18;;;;;;;;;18.00;16.25;;;;;29.17;40.43;100841.97;5090682;27;45186;-62
2021/07/23 10:33:49;;;;;;;;;18.50;17.50;;;;;29.27;40.07;100831.16;5082035;27;45350;-63
2021/07/23 10:36:27;;;;;;;;;17.75;16.00;;;;;29.36;40.53;100829.47;5100379;27;46580;-63
2021/07/23 10:39:04;;;;;;;;;17.25;17.25;;;;;29.46;40.08;100819.50;5100286;27;45330;-62
2021/07/23 10:41:29;;;;;;;;;18.25;17.00;;;;;29.54;39.75;100820.63;5100581;27;45307;-62
2021/07/23 10:43:55;;;;;;;;;15.50;14.75;;;;;29.62;39.78;100820.75;5100125;27;45449;-62
2021/07/23 10:46:43;;;;;;;;;19.50;16.00;;;;;29.76;39.85;100814.03;5093649;27;45356;-62
2021/07/23 10:49:31;;;;;;;;;22.50;22.00;;;;;29.93;39.67;100796.22;5079548;28;45435;-62
2021/07/23 10:52:00;;;;;;;;;17.75;16.25;;;;;30.14;39.71;100791.44;5079472;28;45483;-63
2021/07/23 10:55:21;;;;;;;;;15.75;15.25;;;;;30.46;39.96;100782.00;5079778;28;45285;-62
2021/07/23 10:58:09;;;;;;;;;17.50;16.00;;;;;30.93;39.58;100791.03;5036897;28;46862;-63
2021/07/23 11:00:59;;;;;;;;;15.00;14.50;;;;;31.41;39.77;100776.25;5072151;27;45421;-63
2021/07/23 11:03:37;;;;;;;;;17.50;17.50;;;;;31.95;39.18;100788.00;5100047;27;45244;-62
2021/07/23 11:06:17;;;;;;;;;17.25;17.00;;;;;32.49;38.95;100774.16;5100141;27;45472;-62
2021/07/23 11:08:53;;;;;;;;;15.75;15.75;;;;;33.06;38.70;100774.31;5099469;27;45980;-62
2021/07/23 11:11:21;;;;;;;;;18.25;16.75;;;;;33.61;38.64;100769.25;5099802;27;45275;-62